createdAt,value
2022-10-11T00:04:26.293Z,78.08
2022-10-11T00:09:29.806Z,78.21
2022-10-11T00:14:34.346Z,78.48
2022-10-11T00:19:37.346Z,78.69
2022-10-11T00:24:40.657Z,78.64
2022-10-11T00:29:43.559Z,79.13
2022-10-11T00:34:46.769Z,79.32
2022-10-11T00:39:50.078Z,79.81
2022-10-11T00:45:12.945Z,80.10
2022-10-11T00:50:17.599Z,80.70
2022-10-11T00:55:22.742Z,81.58
2022-10-11T01:00:25.949Z,81.78
2022-10-11T01:05:30.761Z,82.55
2022-10-11T01:10:34.428Z,82.71
2022-10-11T01:15:56.362Z,82.92
2022-10-11T01:21:18.619Z,83.50
2022-10-11T01:26:47.213Z,83.88
2022-10-11T01:32:07.689Z,84.62
2022-10-11T01:37:19.336Z,85.47
2022-10-11T01:42:23.738Z,85.73
2022-10-11T01:47:27.187Z,85.70
2022-10-11T01:52:34.582Z,85.61
2022-10-11T01:57:55.721Z,85.91
2022-10-11T02:03:06.262Z,85.67
2022-10-11T02:08:34.720Z,85.82
2022-10-11T02:13:49.276Z,86.56
2022-10-11T02:18:55.862Z,86.90
2022-10-11T02:24:27.949Z,87.00
2022-10-11T02:29:36.172Z,87.68
2022-10-11T02:35:00.167Z,87.92
2022-10-11T02:40:06.756Z,88.72
2022-10-11T02:45:25.331Z,89.29
2022-10-11T02:50:28.948Z,89.62
2022-10-11T02:55:32.866Z,90.07
2022-10-11T03:00:36.086Z,91.08
2022-10-11T03:05:41.844Z,91.59
2022-10-11T03:10:45.561Z,92.42
2022-10-11T03:16:02.816Z,93.71
2022-10-11T03:21:07.236Z,95.20
2022-10-11T03:26:10.248Z,95.51
2022-10-11T03:31:13.553Z,95.95
2022-10-11T03:36:17.172Z,96.03
2022-10-11T03:41:20.682Z,96.32
2022-10-11T03:46:23.787Z,96.70
2022-10-11T03:51:27.097Z,96.59
2022-10-11T03:56:30.409Z,96.72
2022-10-11T04:01:38.205Z,97.09
2022-10-11T04:06:41.797Z,96.80
2022-10-11T04:11:44.872Z,96.81
2022-10-11T04:16:48.053Z,96.85
2022-10-11T04:21:51.247Z,96.77
2022-10-11T04:26:54.416Z,96.52
2022-10-11T04:31:57.561Z,96.18
2022-10-11T04:37:00.645Z,96.03
2022-10-11T04:42:04.344Z,95.94
2022-10-11T04:47:08.018Z,95.88
2022-10-11T04:52:11.126Z,96.05
2022-10-11T04:57:14.946Z,96.63
2022-10-11T05:02:18.605Z,96.92
2022-10-11T05:07:21.566Z,97.21
2022-10-11T05:12:25.389Z,97.43
2022-10-11T05:17:28.509Z,97.80
2022-10-11T05:22:31.805Z,97.94
2022-10-11T05:27:35.029Z,98.21
2022-10-11T05:32:38.035Z,98.54
2022-10-11T05:37:41.570Z,98.76
2022-10-11T05:42:44.668Z,98.75
2022-10-11T05:47:47.790Z,98.75
2022-10-11T05:52:51.090Z,98.60
2022-10-11T05:57:55.230Z,98.73
2022-10-11T06:02:58.343Z,96.92
2022-10-11T06:08:01.639Z,96.19
2022-10-11T06:13:05.366Z,94.90
2022-10-11T06:18:08.436Z,90.61
2022-10-11T06:23:11.427Z,87.32
2022-10-11T06:28:14.595Z,85.50
2022-10-11T06:33:17.946Z,83.00
2022-10-11T06:38:21.357Z,78.53
2022-10-11T06:43:25.697Z,73.85
2022-10-11T06:48:28.903Z,71.52
2022-10-11T06:53:32.150Z,71.22
2022-10-11T06:58:35.919Z,63.90
2022-10-11T07:03:39.189Z,56.95
2022-10-11T07:08:42.387Z,51.92
2022-10-11T07:14:08.185Z,46.35
2022-10-11T07:19:11.406Z,42.61
2022-10-11T07:24:14.806Z,40.97
2022-10-11T07:29:18.665Z,41.67
2022-10-11T07:34:23.107Z,44.81
2022-10-11T07:39:26.223Z,46.68
2022-10-11T07:44:29.232Z,46.10
2022-10-11T07:49:32.997Z,42.86
2022-10-11T07:54:36.055Z,37.82
2022-10-11T07:59:39.588Z,34.16
2022-10-11T08:04:42.567Z,31.93
2022-10-11T08:09:45.572Z,32.51
2022-10-11T08:14:49.240Z,35.98
2022-10-11T08:19:52.862Z,39.38
2022-10-11T08:24:56.046Z,42.09
2022-10-11T08:29:59.439Z,43.25
2022-10-11T08:35:02.480Z,43.15
2022-10-11T08:40:07.415Z,38.52
2022-10-11T08:45:24.569Z,36.35
2022-10-11T08:50:27.731Z,32.58
2022-10-11T08:55:48.382Z,29.55
2022-10-11T09:00:57.645Z,27.15
2022-10-11T09:06:21.692Z,26.15
2022-10-11T09:12:02.812Z,26.60
2022-10-11T09:17:17.919Z,28.46
2022-10-11T09:22:30.450Z,30.52
2022-10-11T09:28:02.223Z,32.25
2022-10-11T09:33:17.564Z,34.02
2022-10-11T09:38:43.388Z,34.48
2022-10-11T09:43:52.602Z,33.44
2022-10-11T09:48:57.632Z,31.06
2022-10-11T09:54:05.069Z,29.09
2022-10-11T09:59:29.976Z,31.52
2022-10-11T10:04:33.594Z,34.62
2022-10-11T10:09:36.687Z,38.17
2022-10-11T10:14:41.445Z,40.91
2022-10-11T10:19:54.380Z,42.59
2022-10-11T10:24:59.185Z,43.41
2022-10-11T10:30:09.811Z,44.72
2022-10-11T10:35:35.341Z,43.94
2022-10-11T10:40:49.743Z,43.95
2022-10-11T10:46:10.077Z,44.27
2022-10-11T10:51:29.385Z,45.88
2022-10-11T10:56:41.631Z,47.55
2022-10-11T11:02:38.916Z,49.07
2022-10-11T11:08:05.896Z,49.93
2022-10-11T11:13:28.938Z,50.54
2022-10-11T11:19:01.844Z,50.57
2022-10-11T11:24:13.755Z,50.18
2022-10-11T11:29:43.808Z,49.80
2022-10-11T11:34:51.302Z,50.11
2022-10-11T11:40:14.375Z,51.41
2022-10-11T11:45:28.457Z,53.16
2022-10-11T11:50:45.977Z,54.06
2022-10-11T11:56:04.641Z,54.66
2022-10-11T12:01:26.457Z,54.82
2022-10-11T12:06:43.739Z,54.50
2022-10-11T12:12:01.133Z,53.72
2022-10-11T12:17:20.659Z,53.06
2022-10-11T12:22:26.948Z,52.88
2022-10-11T12:27:43.516Z,52.89
2022-10-11T12:32:49.663Z,53.56
2022-10-11T12:38:23.201Z,53.76
2022-10-11T12:43:36.695Z,53.63
2022-10-11T12:48:56.141Z,54.44
2022-10-11T12:54:36.760Z,55.09
2022-10-11T12:59:45.038Z,55.28
2022-10-11T13:04:48.096Z,55.41
2022-10-11T13:09:54.653Z,56.22
2022-10-11T13:15:05.156Z,57.07
2022-10-11T13:20:17.921Z,58.03
2022-10-11T13:25:27.687Z,58.43
2022-10-11T13:30:34.874Z,59.83
2022-10-11T13:35:39.516Z,61.06
2022-10-11T13:40:45.315Z,61.32
2022-10-11T13:45:51.021Z,61.27
2022-10-11T13:51:27.250Z,60.58
2022-10-11T13:56:35.326Z,60.56
2022-10-11T14:01:41.097Z,61.29
2022-10-11T14:06:46.900Z,61.29
2022-10-11T14:11:51.094Z,61.08
2022-10-11T14:17:04.425Z,61.21
2022-10-11T14:22:17.813Z,61.79
2022-10-11T14:27:23.982Z,61.51
2022-10-11T14:32:32.891Z,60.81
2022-10-11T14:37:36.218Z,60.75
2022-10-11T14:42:39.514Z,60.20
2022-10-11T14:47:43.347Z,59.52
2022-10-11T14:52:47.623Z,60.02
2022-10-11T14:57:50.821Z,60.43
2022-10-11T15:02:55.383Z,61.11
2022-10-11T15:07:58.606Z,61.79
2022-10-11T15:13:02.810Z,62.03
2022-10-11T15:18:08.113Z,62.58
2022-10-11T15:23:12.396Z,63.20
2022-10-11T15:28:42.779Z,63.77
2022-10-11T15:33:46.871Z,64.48
2022-10-11T15:38:50.696Z,64.83
2022-10-11T15:43:53.961Z,65.12
2022-10-11T15:48:57.145Z,65.64
2022-10-11T15:54:00.268Z,66.10
2022-10-11T15:59:03.385Z,66.76
2022-10-11T16:04:07.576Z,67.45
2022-10-11T16:09:10.965Z,67.82
2022-10-11T16:14:13.983Z,68.33
2022-10-11T16:19:17.110Z,68.63
2022-10-11T16:24:20.303Z,68.89
2022-10-11T16:29:24.549Z,69.37
2022-10-11T16:34:28.282Z,69.84
2022-10-11T16:39:33.850Z,70.11
2022-10-11T16:44:38.821Z,70.36
2022-10-11T16:49:42.737Z,70.89
2022-10-11T16:54:47.726Z,71.47
2022-10-11T16:59:51.437Z,72.27
2022-10-11T17:04:55.372Z,73.01
2022-10-11T17:10:01.948Z,73.78
2022-10-11T17:15:07.825Z,74.88
2022-10-11T17:20:13.641Z,75.94
2022-10-11T17:25:17.955Z,76.88
2022-10-11T17:30:23.083Z,77.66
2022-10-11T17:35:33.776Z,78.58
2022-10-11T17:40:38.710Z,79.45
2022-10-11T17:45:43.547Z,80.31
2022-10-11T17:50:50.613Z,81.32
2022-10-11T17:55:54.848Z,82.14
2022-10-11T18:01:07.332Z,82.67
2022-10-11T18:06:13.706Z,83.19
2022-10-11T18:11:19.882Z,83.60
2022-10-11T18:16:29.330Z,84.24
2022-10-11T18:21:34.736Z,85.17
2022-10-11T18:26:39.329Z,86.03
2022-10-11T18:31:45.006Z,86.36
2022-10-11T18:36:49.023Z,87.00
2022-10-11T18:41:53.050Z,87.73
2022-10-11T18:46:56.693Z,88.27
2022-10-11T18:52:00.282Z,88.21
2022-10-11T18:57:03.903Z,88.64
2022-10-11T19:02:08.237Z,89.56
2022-10-11T19:07:11.545Z,89.85
2022-10-11T19:12:15.777Z,89.97
2022-10-11T19:17:23.591Z,90.25
2022-10-11T19:22:28.242Z,90.48
2022-10-11T19:27:31.854Z,91.02
2022-10-11T19:32:36.704Z,91.09
2022-10-11T19:37:40.012Z,91.29
2022-10-11T19:42:43.251Z,91.79
2022-10-11T19:47:46.776Z,92.50
2022-10-11T19:52:49.957Z,93.03
2022-10-11T19:57:53.326Z,93.50
2022-10-11T20:02:56.783Z,93.47
2022-10-11T20:08:00.179Z,93.67
2022-10-11T20:13:03.687Z,93.97
2022-10-11T20:18:06.668Z,94.26
2022-10-11T20:23:12.579Z,94.09
2022-10-11T20:28:17.931Z,94.18
2022-10-11T20:33:21.996Z,94.66
2022-10-11T20:38:25.871Z,94.90
2022-10-11T20:43:29.119Z,95.42
2022-10-11T20:48:32.463Z,95.54
2022-10-11T20:53:37.762Z,95.50
2022-10-11T20:58:42.373Z,95.95
2022-10-11T21:03:46.085Z,96.31
2022-10-11T21:08:49.448Z,96.50
2022-10-11T21:13:57.246Z,96.70
2022-10-11T21:19:02.049Z,96.78
2022-10-11T21:24:05.920Z,97.31
2022-10-11T21:29:09.234Z,97.76
2022-10-11T21:34:12.432Z,98.00
2022-10-11T21:39:16.156Z,98.10
2022-10-11T21:44:19.361Z,98.11
2022-10-11T21:49:22.503Z,97.89
2022-10-11T21:54:25.534Z,97.10
2022-10-11T21:59:29.307Z,96.78
2022-10-11T22:04:33.534Z,96.87
2022-10-11T22:09:38.373Z,96.65
2022-10-11T22:14:42.094Z,96.42
2022-10-11T22:19:45.515Z,96.82
2022-10-11T22:24:49.432Z,97.08
2022-10-11T22:29:52.536Z,97.32
2022-10-11T22:34:55.642Z,97.30
2022-10-11T22:39:58.749Z,97.53
2022-10-11T22:45:01.957Z,97.71
2022-10-11T22:50:05.790Z,97.81
2022-10-11T22:55:09.553Z,97.90
2022-10-11T23:00:13.632Z,98.02
2022-10-11T23:05:17.143Z,98.28
2022-10-11T23:10:20.762Z,98.49
2022-10-11T23:15:24.685Z,98.30
2022-10-11T23:20:27.894Z,98.15
2022-10-11T23:25:31.102Z,97.92
2022-10-11T23:30:35.541Z,97.54
2022-10-11T23:35:38.751Z,96.95
2022-10-11T23:40:42.878Z,96.72
2022-10-11T23:45:46.084Z,96.87
2022-10-11T23:50:49.190Z,97.11
2022-10-11T23:55:52.601Z,97.25
